createdAt,value
2023-02-12T00:00:03.665Z,33.30
2023-02-12T00:02:30.891Z,32.80
2023-02-12T00:04:57.640Z,32.70
2023-02-12T00:07:24.494Z,34.43
2023-02-12T00:09:51.343Z,33.83
2023-02-12T00:12:20.875Z,34.60
2023-02-12T00:14:47.976Z,33.67
2023-02-12T00:17:14.727Z,30.73
2023-02-12T00:19:41.536Z,32.00
2023-02-12T00:22:08.317Z,34.57
2023-02-12T00:24:35.023Z,29.80
2023-02-12T00:27:01.778Z,30.80
2023-02-12T00:29:28.582Z,31.63
2023-02-12T00:31:55.394Z,32.40
2023-02-12T00:34:22.269Z,32.40
2023-02-12T00:36:49.053Z,33.50
2023-02-12T00:39:15.820Z,33.47
2023-02-12T00:41:42.567Z,31.77
2023-02-12T00:44:09.292Z,31.07
2023-02-12T00:46:36.126Z,30.10
2023-02-12T00:49:02.974Z,32.37
2023-02-12T00:51:29.706Z,32.37
2023-02-12T00:53:56.831Z,30.20
2023-02-12T00:56:23.699Z,31.03
2023-02-12T00:58:50.867Z,30.23
2023-02-12T01:01:18.787Z,30.87
2023-02-12T01:03:45.638Z,30.40
2023-02-12T01:06:12.401Z,32.60
2023-02-12T01:08:42.503Z,30.60
2023-02-12T01:11:13.212Z,31.60
2023-02-12T01:13:39.933Z,31.33
2023-02-12T01:16:25.209Z,32.30
2023-02-12T01:18:55.950Z,31.67
2023-02-12T01:21:29.123Z,31.77
2023-02-12T01:23:56.421Z,30.27
2023-02-12T01:26:23.420Z,30.80
2023-02-12T01:28:53.491Z,32.17
2023-02-12T01:31:23.739Z,33.80
2023-02-12T01:33:53.625Z,30.97
2023-02-12T01:36:20.871Z,30.30
2023-02-12T01:38:48.322Z,31.90
2023-02-12T01:41:17.987Z,31.10
2023-02-12T01:43:46.511Z,30.50
2023-02-12T01:46:15.104Z,28.40
2023-02-12T01:48:47.792Z,31.20
2023-02-12T01:51:20.297Z,30.10
2023-02-12T01:53:53.661Z,29.07
2023-02-12T01:56:21.574Z,29.13
2023-02-12T01:58:51.332Z,28.20
2023-02-12T02:01:23.701Z,29.00
2023-02-12T02:03:59.726Z,29.10
2023-02-12T02:06:31.841Z,31.13
2023-02-12T02:08:58.661Z,29.30
2023-02-12T02:11:43.936Z,30.60
2023-02-12T02:14:29.488Z,29.53
2023-02-12T02:17:11.189Z,29.70
2023-02-12T02:19:49.851Z,30.17
2023-02-12T02:22:47.802Z,29.20
2023-02-12T02:25:50.253Z,28.50
2023-02-12T02:28:48.240Z,28.73
2023-02-12T02:31:20.558Z,29.73
2023-02-12T02:34:15.741Z,30.17
2023-02-12T02:37:00.586Z,28.23
2023-02-12T02:39:39.918Z,28.63
2023-02-12T02:42:17.280Z,29.30
2023-02-12T02:45:18.887Z,30.33
2023-02-12T02:47:57.817Z,28.93
2023-02-12T02:50:28.005Z,26.70
2023-02-12T02:53:10.529Z,29.77
2023-02-12T02:55:55.253Z,27.43
2023-02-12T02:58:27.944Z,28.43
2023-02-12T03:01:07.572Z,29.47
2023-02-12T03:03:48.776Z,30.03
2023-02-12T03:06:24.623Z,30.10
2023-02-12T03:09:09.774Z,29.30
2023-02-12T03:11:36.602Z,29.90
2023-02-12T03:14:22.083Z,27.73
2023-02-12T03:17:03.356Z,29.47
2023-02-12T03:19:34.959Z,28.50
2023-02-12T03:22:06.257Z,31.50
2023-02-12T03:24:56.433Z,30.40
2023-02-12T03:27:29.206Z,28.73
2023-02-12T03:29:58.657Z,29.60
2023-02-12T03:32:35.815Z,29.87
2023-02-12T03:35:35.274Z,30.10
2023-02-12T03:38:17.193Z,28.63
2023-02-12T03:40:56.225Z,28.70
2023-02-12T03:43:33.654Z,29.07
2023-02-12T03:46:12.688Z,29.20
2023-02-12T03:48:39.420Z,30.53
2023-02-12T03:51:15.038Z,31.10
2023-02-12T03:53:42.924Z,30.43
2023-02-12T03:56:15.402Z,29.53
2023-02-12T03:58:43.174Z,31.40
2023-02-12T04:01:11.343Z,29.23
2023-02-12T04:03:38.684Z,30.27
2023-02-12T04:06:05.793Z,28.23
2023-02-12T04:08:33.188Z,30.20
2023-02-12T04:11:06.745Z,28.90
2023-02-12T04:13:57.168Z,28.37
2023-02-12T04:16:33.315Z,28.23
2023-02-12T04:19:04.116Z,28.10
2023-02-12T04:21:55.477Z,29.40
2023-02-12T04:24:44.472Z,28.10
2023-02-12T04:27:35.558Z,27.17
2023-02-12T04:30:15.405Z,29.10
2023-02-12T04:32:51.512Z,29.30
2023-02-12T04:35:27.328Z,28.73
2023-02-12T04:38:15.584Z,27.40
2023-02-12T04:40:43.087Z,28.90
2023-02-12T04:43:10.820Z,27.40
2023-02-12T04:45:38.734Z,28.10
2023-02-12T04:48:05.868Z,30.20
2023-02-12T04:50:43.507Z,27.90
2023-02-12T04:53:10.797Z,28.97
2023-02-12T04:55:37.951Z,28.90
2023-02-12T04:58:05.503Z,28.23
2023-02-12T05:00:32.367Z,28.03
2023-02-12T05:02:59.160Z,27.83
2023-02-12T05:08:06.191Z,27.30
2023-02-12T05:10:32.930Z,29.27
2023-02-12T05:12:59.764Z,27.97
2023-02-12T05:15:26.592Z,29.40
2023-02-12T05:17:53.475Z,27.83
2023-02-12T05:20:20.387Z,27.77
2023-02-12T05:22:51.016Z,29.10
2023-02-12T05:25:17.842Z,27.73
2023-02-12T05:27:44.590Z,29.10
2023-02-12T05:30:11.832Z,27.43
2023-02-12T05:32:38.579Z,30.20
2023-02-12T05:35:05.712Z,29.00
2023-02-12T05:37:36.327Z,28.47
2023-02-12T05:40:07.028Z,28.40
2023-02-12T05:42:33.811Z,27.90
2023-02-12T05:45:00.632Z,28.13
2023-02-12T05:47:27.845Z,28.27
2023-02-12T05:49:54.564Z,29.20
2023-02-12T05:52:21.300Z,30.53
2023-02-12T05:54:50.557Z,29.67
2023-02-12T05:57:17.295Z,27.80
2023-02-12T05:59:44.104Z,29.43
2023-02-12T06:02:10.925Z,30.27
2023-02-12T06:04:37.742Z,31.27
2023-02-12T06:07:04.467Z,31.00
2023-02-12T06:09:31.190Z,30.63
2023-02-12T06:11:57.913Z,29.90
2023-02-12T06:14:24.751Z,31.60
2023-02-12T06:16:52.337Z,30.83
2023-02-12T06:19:19.638Z,30.50
2023-02-12T06:21:47.322Z,32.67
2023-02-12T06:24:15.631Z,29.83
2023-02-12T06:26:42.849Z,29.70
2023-02-12T06:29:09.644Z,30.10
2023-02-12T06:31:37.626Z,31.40
2023-02-12T06:34:07.816Z,30.10
2023-02-12T06:36:36.582Z,29.97
2023-02-12T06:39:04.358Z,30.90
2023-02-12T06:41:31.263Z,31.03
2023-02-12T06:43:58.298Z,31.50
2023-02-12T06:46:25.200Z,33.60
2023-02-12T06:48:56.920Z,29.90
2023-02-12T06:51:24.016Z,30.30
2023-02-12T06:53:52.992Z,29.40
2023-02-12T06:56:20.985Z,29.60
2023-02-12T06:58:54.050Z,30.87
2023-02-12T07:01:26.364Z,29.53
2023-02-12T07:03:55.515Z,29.10
2023-02-12T07:06:23.474Z,29.50
2023-02-12T07:08:50.652Z,31.50
2023-02-12T07:11:18.820Z,29.77
2023-02-12T07:13:45.943Z,28.43
2023-02-12T07:16:15.413Z,29.17
2023-02-12T07:18:43.244Z,30.97
2023-02-12T07:21:10.642Z,31.93
2023-02-12T07:23:37.941Z,30.17
2023-02-12T07:26:07.383Z,32.43
2023-02-12T07:28:34.759Z,32.10
2023-02-12T07:31:11.308Z,31.63
2023-02-12T07:33:39.199Z,30.97
2023-02-12T07:36:08.671Z,29.97
2023-02-12T07:38:39.761Z,28.73
2023-02-12T07:41:30.997Z,29.27
2023-02-12T07:44:00.736Z,29.03
2023-02-12T07:46:30.874Z,31.53
2023-02-12T07:49:02.782Z,29.40
2023-02-12T07:51:29.821Z,28.90
2023-02-12T07:53:56.789Z,28.77
2023-02-12T07:56:32.680Z,28.97
2023-02-12T07:59:05.395Z,29.50
2023-02-12T08:01:34.818Z,28.47
2023-02-12T08:04:04.704Z,30.03
2023-02-12T08:06:34.112Z,29.07
2023-02-12T08:09:03.342Z,28.83
2023-02-12T08:11:30.868Z,28.47
2023-02-12T08:13:58.502Z,28.53
2023-02-12T08:16:26.851Z,29.17
2023-02-12T08:18:54.189Z,30.07
2023-02-12T08:21:22.896Z,27.97
2023-02-12T08:23:50.762Z,27.80
2023-02-12T08:26:29.137Z,27.50
2023-02-12T08:28:59.733Z,28.47
2023-02-12T08:31:29.113Z,29.07
2023-02-12T08:33:56.862Z,29.77
2023-02-12T08:36:29.067Z,31.73
2023-02-12T08:38:59.310Z,29.67
2023-02-12T08:41:28.483Z,28.00
2023-02-12T08:44:01.562Z,29.30
2023-02-12T08:46:30.594Z,29.97
2023-02-12T08:48:59.744Z,30.20
2023-02-12T08:51:32.502Z,28.00
2023-02-12T08:54:01.678Z,30.20
2023-02-12T08:56:32.989Z,30.50
2023-02-12T08:59:01.360Z,29.57
2023-02-12T09:01:30.462Z,30.43
2023-02-12T09:03:57.272Z,30.20
2023-02-12T09:06:25.269Z,29.80
2023-02-12T09:08:53.444Z,32.07
2023-02-12T09:11:32.152Z,30.63
2023-02-12T09:14:04.612Z,33.17
2023-02-12T09:16:33.961Z,30.53
2023-02-12T09:19:01.162Z,32.70
2023-02-12T09:21:28.336Z,30.90
2023-02-12T09:23:55.274Z,32.30
2023-02-12T09:26:25.826Z,29.80
2023-02-12T09:28:54.234Z,31.40
2023-02-12T09:31:27.110Z,32.30
2023-02-12T09:33:58.365Z,30.43
2023-02-12T09:36:25.622Z,29.20
2023-02-12T09:38:59.635Z,29.70
2023-02-12T09:41:30.090Z,29.90
2023-02-12T09:44:01.013Z,27.07
2023-02-12T09:46:27.736Z,29.13
2023-02-12T09:49:19.175Z,29.20
2023-02-12T09:51:51.639Z,30.30
2023-02-12T09:54:21.114Z,29.67
2023-02-12T09:56:52.670Z,30.23
2023-02-12T09:59:41.522Z,29.93
2023-02-12T10:02:15.214Z,28.23
2023-02-12T10:05:00.021Z,29.07
2023-02-12T10:07:36.413Z,28.70
2023-02-12T10:10:17.247Z,28.90
2023-02-12T10:12:56.151Z,29.43
2023-02-12T10:16:02.345Z,30.50
2023-02-12T10:18:54.782Z,28.60
2023-02-12T10:21:21.486Z,26.40
2023-02-12T10:24:14.462Z,28.47
2023-02-12T10:26:50.465Z,25.83
2023-02-12T10:29:31.834Z,29.50
2023-02-12T10:32:16.575Z,31.13
2023-02-12T10:34:43.971Z,26.60
2023-02-12T10:37:25.382Z,27.67
2023-02-12T10:40:00.130Z,27.50
2023-02-12T10:42:43.308Z,25.40
2023-02-12T10:45:15.050Z,27.27
2023-02-12T10:47:42.350Z,25.77
2023-02-12T10:50:29.504Z,26.63
2023-02-12T10:52:58.477Z,26.67
2023-02-12T10:55:32.730Z,28.70
2023-02-12T10:58:01.394Z,26.00
2023-02-12T11:00:35.210Z,27.83
2023-02-12T11:03:13.848Z,26.70
2023-02-12T11:05:40.799Z,26.93
2023-02-12T11:08:26.160Z,25.87
2023-02-12T11:10:53.272Z,25.80
2023-02-12T11:13:27.920Z,27.13
2023-02-12T11:15:55.359Z,25.73
2023-02-12T11:18:28.309Z,26.20
2023-02-12T11:20:58.556Z,26.77
2023-02-12T11:23:27.509Z,26.33
2023-02-12T11:26:20.319Z,26.93
2023-02-12T11:29:23.696Z,27.70
2023-02-12T11:32:12.426Z,27.43
2023-02-12T11:34:39.176Z,26.33
2023-02-12T11:37:17.423Z,26.87
2023-02-12T11:39:48.515Z,26.27
2023-02-12T11:42:16.788Z,26.60
2023-02-12T11:44:50.246Z,27.07
2023-02-12T11:47:23.931Z,26.20
2023-02-12T11:49:55.477Z,24.70
2023-02-12T11:52:25.941Z,23.10
2023-02-12T11:54:59.595Z,24.03
2023-02-12T11:57:43.558Z,23.20
2023-02-12T12:00:22.678Z,22.10
2023-02-12T12:03:14.130Z,22.57
2023-02-12T12:05:47.138Z,20.80
2023-02-12T12:09:09.499Z,21.33
2023-02-12T12:12:01.521Z,23.47
2023-02-12T12:15:12.960Z,22.43
2023-02-12T12:18:39.476Z,21.47
2023-02-12T12:21:16.066Z,22.00
2023-02-12T12:23:49.823Z,21.30
2023-02-12T12:26:26.035Z,20.27
2023-02-12T12:29:06.667Z,21.17
2023-02-12T12:31:40.831Z,19.73
2023-02-12T12:34:17.293Z,19.03
2023-02-12T12:36:46.931Z,19.00
2023-02-12T12:39:42.218Z,18.90
2023-02-12T12:42:53.332Z,19.07
2023-02-12T12:46:08.117Z,19.47
2023-02-12T12:48:40.937Z,18.60
2023-02-12T12:51:19.994Z,19.83
2023-02-12T12:54:15.753Z,17.73
2023-02-12T12:56:46.555Z,17.80
2023-02-12T12:59:31.867Z,18.90
2023-02-12T13:02:16.046Z,17.50
2023-02-12T13:05:07.817Z,16.30
2023-02-12T13:08:05.336Z,18.00
2023-02-12T13:10:50.165Z,20.10
2023-02-12T13:13:32.835Z,17.90
2023-02-12T13:16:09.503Z,19.70
2023-02-12T13:19:00.992Z,19.43
2023-02-12T13:21:52.590Z,19.37
2023-02-12T13:24:43.906Z,19.67
2023-02-12T13:27:34.623Z,19.67
2023-02-12T13:30:36.539Z,20.73
2023-02-12T13:33:25.829Z,21.03
2023-02-12T13:35:59.391Z,18.40
2023-02-12T13:38:33.374Z,21.00
2023-02-12T13:41:07.599Z,19.03
2023-02-12T13:43:40.646Z,22.63
2023-02-12T13:46:27.742Z,19.20
2023-02-12T13:49:05.812Z,19.57
2023-02-12T13:51:51.834Z,20.23
2023-02-12T13:54:59.799Z,21.53
2023-02-12T13:57:26.601Z,18.63
2023-02-12T13:59:55.171Z,18.70
2023-02-12T14:02:29.538Z,19.60
2023-02-12T14:05:01.701Z,19.37
2023-02-12T14:07:42.470Z,19.93
2023-02-12T14:10:24.209Z,17.77
2023-02-12T14:12:52.354Z,20.60
2023-02-12T14:15:35.060Z,18.50
2023-02-12T14:18:23.077Z,19.77
2023-02-12T14:21:12.415Z,19.20
2023-02-12T14:23:43.953Z,19.83
2023-02-12T14:26:13.785Z,20.00
2023-02-12T14:28:52.563Z,20.43
2023-02-12T14:31:19.572Z,20.60
2023-02-12T14:34:15.342Z,19.40
2023-02-12T14:36:44.265Z,20.97
2023-02-12T14:39:20.113Z,20.23
2023-02-12T14:42:14.484Z,20.37
2023-02-12T14:44:47.804Z,19.63
2023-02-12T14:47:29.848Z,20.83
2023-02-12T14:50:01.713Z,21.80
2023-02-12T14:52:32.574Z,22.13
2023-02-12T14:55:06.010Z,19.40
2023-02-12T14:57:38.150Z,21.80
2023-02-12T15:00:16.815Z,21.80
2023-02-12T15:03:06.857Z,21.43
2023-02-12T15:08:28.337Z,20.97
2023-02-12T15:11:18.823Z,19.83
2023-02-12T15:13:54.575Z,27.47
2023-02-12T15:16:42.656Z,20.43
2023-02-12T15:19:20.617Z,19.50
2023-02-12T15:21:48.002Z,20.67
2023-02-12T15:24:23.413Z,19.23
2023-02-12T15:26:52.659Z,19.03
2023-02-12T15:29:34.158Z,20.97
2023-02-12T15:32:05.556Z,20.07
2023-02-12T15:34:37.341Z,20.37
2023-02-12T15:37:05.591Z,20.53
2023-02-12T15:39:43.577Z,21.10
2023-02-12T15:42:35.501Z,21.97
2023-02-12T15:45:14.249Z,20.10
2023-02-12T15:47:42.126Z,19.43
2023-02-12T15:50:18.037Z,20.60
2023-02-12T15:52:46.981Z,19.50
2023-02-12T15:55:39.642Z,21.30
2023-02-12T15:58:27.014Z,20.40
2023-02-12T16:00:55.152Z,20.40
2023-02-12T16:03:21.930Z,20.80
2023-02-12T16:05:50.132Z,21.23
2023-02-12T16:08:20.237Z,21.20
2023-02-12T16:10:49.759Z,20.27
2023-02-12T16:13:19.521Z,20.20
2023-02-12T16:15:46.356Z,19.40
2023-02-12T16:18:26.663Z,21.77
2023-02-12T16:21:15.516Z,19.80
2023-02-12T16:23:47.226Z,19.60
2023-02-12T16:26:19.501Z,19.40
2023-02-12T16:28:49.733Z,20.67
2023-02-12T16:31:18.065Z,18.80
2023-02-12T16:33:53.320Z,20.40
2023-02-12T16:36:20.082Z,19.37
2023-02-12T16:38:55.790Z,21.50
2023-02-12T16:41:31.047Z,20.50
2023-02-12T16:44:00.627Z,21.83
2023-02-12T16:46:29.914Z,19.40
2023-02-12T16:48:58.199Z,19.60
2023-02-12T16:51:33.879Z,21.30
2023-02-12T16:54:02.407Z,19.87
2023-02-12T16:56:34.200Z,19.40
2023-02-12T16:59:02.096Z,20.60
2023-02-12T17:01:34.576Z,20.90
2023-02-12T17:04:07.344Z,21.10
2023-02-12T17:06:34.559Z,24.23
2023-02-12T17:09:01.402Z,21.17
2023-02-12T17:11:29.121Z,28.50
2023-02-12T17:13:56.945Z,22.23
2023-02-12T17:16:30.855Z,21.33
2023-02-12T17:18:59.206Z,22.27
2023-02-12T17:21:32.463Z,21.03
2023-02-12T17:23:59.401Z,21.53
2023-02-12T17:26:26.730Z,20.50
2023-02-12T17:28:53.579Z,22.83
2023-02-12T17:31:20.918Z,23.13
2023-02-12T17:33:47.730Z,21.03
2023-02-12T17:36:14.545Z,22.07
2023-02-12T17:38:41.315Z,21.93
2023-02-12T17:41:11.366Z,22.40
2023-02-12T17:43:38.267Z,23.40
2023-02-12T17:46:13.087Z,23.93
2023-02-12T17:48:40.682Z,21.43
2023-02-12T17:51:10.109Z,23.40
2023-02-12T17:53:36.983Z,20.10
2023-02-12T17:56:04.164Z,21.17
2023-02-12T17:58:31.349Z,20.50
2023-02-12T18:01:03.661Z,22.30
2023-02-12T18:03:30.403Z,22.00
2023-02-12T18:05:57.141Z,20.63
2023-02-12T18:08:23.980Z,21.97
2023-02-12T18:10:50.763Z,21.57
2023-02-12T18:13:17.479Z,20.93
2023-02-12T18:15:44.583Z,20.40
2023-02-12T18:18:11.731Z,21.30
2023-02-12T18:20:41.181Z,22.10
2023-02-12T18:23:08.604Z,22.33
2023-02-12T18:25:40.055Z,22.37
2023-02-12T18:28:07.118Z,20.60
2023-02-12T18:30:34.066Z,21.60
2023-02-12T18:33:00.816Z,20.53
2023-02-12T18:35:27.662Z,20.90
2023-02-12T18:37:54.441Z,22.00
2023-02-12T18:40:21.287Z,21.33
2023-02-12T18:42:48.081Z,20.40
2023-02-12T18:45:14.933Z,21.20
2023-02-12T18:47:42.330Z,20.27
2023-02-12T18:50:09.619Z,21.53
2023-02-12T18:52:37.555Z,19.87
2023-02-12T18:55:06.643Z,20.80
2023-02-12T18:57:36.423Z,22.03
2023-02-12T19:00:05.008Z,21.00
2023-02-12T19:02:31.780Z,21.30
2023-02-12T19:04:58.631Z,23.73
2023-02-12T19:07:27.463Z,23.17
2023-02-12T19:10:10.553Z,21.73
2023-02-12T19:12:38.080Z,22.60
2023-02-12T19:15:05.147Z,22.07
2023-02-12T19:17:32.021Z,21.63
2023-02-12T19:20:02.030Z,21.20
2023-02-12T19:22:30.465Z,20.87
2023-02-12T19:24:57.383Z,19.50
2023-02-12T19:27:28.373Z,21.03
2023-02-12T19:29:55.255Z,21.30
2023-02-12T19:32:22.047Z,22.43
2023-02-12T19:34:48.843Z,21.87
2023-02-12T19:37:15.874Z,20.60
2023-02-12T19:39:42.742Z,21.67
2023-02-12T19:42:10.538Z,19.70
2023-02-12T19:44:43.893Z,20.40
2023-02-12T19:47:10.728Z,20.77
2023-02-12T19:49:38.215Z,20.23
2023-02-12T19:52:05.116Z,21.13
2023-02-12T19:54:31.946Z,21.60
2023-02-12T19:57:00.104Z,22.20
2023-02-12T19:59:27.795Z,20.80
2023-02-12T20:01:56.806Z,23.70
2023-02-12T20:04:24.454Z,22.97
2023-02-12T20:06:52.415Z,23.03
2023-02-12T20:09:21.168Z,24.43
2023-02-12T20:11:48.378Z,22.43
2023-02-12T20:14:15.320Z,22.07
2023-02-12T20:16:46.736Z,22.40
2023-02-12T20:19:23.089Z,21.30
2023-02-12T20:21:54.538Z,21.00
2023-02-12T20:24:23.638Z,23.43
2023-02-12T20:26:50.799Z,22.57
2023-02-12T20:29:17.608Z,22.50
2023-02-12T20:31:45.266Z,22.80
2023-02-12T20:34:15.340Z,24.53
2023-02-12T20:36:43.811Z,24.70
2023-02-12T20:39:13.522Z,22.30
2023-02-12T20:41:41.061Z,23.63
2023-02-12T20:44:13.252Z,24.07
2023-02-12T20:46:42.045Z,23.10
2023-02-12T20:49:11.482Z,24.00
2023-02-12T20:51:38.291Z,24.27
2023-02-12T20:54:05.192Z,21.43
2023-02-12T20:56:35.785Z,23.50
2023-02-12T20:59:03.446Z,25.37
2023-02-12T21:01:34.711Z,24.03
2023-02-12T21:04:05.347Z,25.93
2023-02-12T21:06:32.646Z,22.40
2023-02-12T21:08:59.503Z,23.70
2023-02-12T21:11:28.237Z,24.10
2023-02-12T21:14:18.533Z,25.70
2023-02-12T21:16:46.522Z,25.77
2023-02-12T21:19:18.116Z,25.13
2023-02-12T21:21:45.349Z,25.53
2023-02-12T21:24:14.837Z,24.70
2023-02-12T21:26:41.836Z,25.33
2023-02-12T21:29:08.727Z,24.60
2023-02-12T21:31:41.460Z,26.33
2023-02-12T21:34:11.348Z,26.60
2023-02-12T21:36:40.205Z,25.30
2023-02-12T21:39:08.826Z,26.50
2023-02-12T21:41:38.164Z,26.40
2023-02-12T21:44:13.654Z,25.97
2023-02-12T21:46:40.754Z,25.10
2023-02-12T21:49:08.153Z,24.13
2023-02-12T21:51:38.188Z,24.17
2023-02-12T21:54:08.347Z,25.63
2023-02-12T21:56:40.184Z,25.37
2023-02-12T21:59:08.717Z,25.43
2023-02-12T22:01:37.802Z,25.13
2023-02-12T22:04:06.845Z,26.30
2023-02-12T22:06:37.628Z,25.60
2023-02-12T22:09:07.912Z,25.33
2023-02-12T22:11:36.444Z,28.70
2023-02-12T22:14:04.507Z,27.47
2023-02-12T22:16:31.841Z,27.97
2023-02-12T22:19:01.788Z,25.20
2023-02-12T22:21:33.044Z,25.57
2023-02-12T22:24:05.017Z,26.10
2023-02-12T22:26:32.541Z,26.30
2023-02-12T22:29:03.167Z,23.80
2023-02-12T22:31:32.636Z,27.47
2023-02-12T22:34:04.208Z,25.93
2023-02-12T22:36:33.681Z,25.60
2023-02-12T22:39:01.135Z,26.80
2023-02-12T22:41:29.150Z,26.07
2023-02-12T22:43:59.196Z,26.33
2023-02-12T22:46:26.825Z,25.10
2023-02-12T22:48:53.729Z,26.63
2023-02-12T22:51:24.145Z,24.40
2023-02-12T22:53:51.045Z,25.63
2023-02-12T22:56:18.534Z,27.10
2023-02-12T22:58:45.868Z,24.63
2023-02-12T23:01:15.241Z,24.67
2023-02-12T23:03:42.666Z,24.87
2023-02-12T23:06:15.310Z,24.77
2023-02-12T23:08:43.728Z,24.83
2023-02-12T23:11:11.893Z,24.33
2023-02-12T23:13:39.027Z,25.20
2023-02-12T23:16:06.075Z,24.57
2023-02-12T23:18:33.789Z,24.43
2023-02-12T23:21:01.178Z,24.67
2023-02-12T23:23:28.493Z,22.80
2023-02-12T23:25:56.806Z,21.90
2023-02-12T23:28:24.111Z,23.10
2023-02-12T23:30:52.221Z,21.20
2023-02-12T23:33:20.250Z,20.73
2023-02-12T23:35:48.128Z,20.23
2023-02-12T23:38:16.059Z,20.27
2023-02-12T23:40:43.200Z,19.90
2023-02-12T23:43:10.416Z,20.37
2023-02-12T23:45:37.248Z,21.03
2023-02-12T23:48:04.248Z,18.23
2023-02-12T23:50:31.073Z,19.00
2023-02-12T23:52:59.196Z,20.60
2023-02-12T23:55:25.947Z,16.73
2023-02-12T23:57:52.731Z,18.40
